Time;durP1;ratioP1;P1;durP2;ratioP2;P2;SDS_P1;SDS_P2;PMS_P1;PMS_P2;Temp;Humidity;BMP_temperature;BMP_pressure;BME280_temperature;BME280_humidity;BME280_pressure;Samples;Min_cycle;Max_cycle;Signal;HPM_P1;HPM_P2
2022/04/30 00:01:34;;;;;;;;;;;;;;;-144.59;100.00;62238.38;5075813;28;1177;-72
2022/04/30 00:04:00;;;;;;;;;;;;;;;-144.59;100.00;62238.38;5073617;28;2086;-71
2022/04/30 00:06:26;;;;;;;;;;;;;;;-144.59;100.00;62238.38;5075906;28;943;-72
2022/04/30 00:08:52;;;;;;;;;;;;;;;-144.59;100.00;62238.38;5075277;28;802;-71
2022/04/30 00:11:18;;;;;;;;;;;;;;;-144.59;100.00;62238.38;5075452;28;1161;-72
2022/04/30 00:13:44;;;;;;;;;;;;;;;-144.59;100.00;62238.38;5075382;28;1893;-71
2022/04/30 00:16:10;;;;;;;;;;;;;;;-144.59;100.00;62238.38;5071016;28;2110;-71
2022/04/30 00:18:36;;;;;;;;;;;;;;;-144.59;100.00;62238.38;5055109;28;861;-72
2022/04/30 00:21:02;;;;;;;;;;;;;;;-144.59;100.00;62238.38;5055216;28;1256;-71
2022/04/30 00:23:28;;;;;;;;;;;;;;;-144.59;100.00;62238.38;5055614;28;826;-71
2022/04/30 00:25:55;;;;;;;;;;;;;;;-144.59;100.00;62238.38;5055316;28;809;-71
2022/04/30 00:28:26;;;;;;;;;;;;;;;-144.59;100.00;62238.38;5054665;28;902;-72
2022/04/30 00:30:53;;;;;;;;;;;;;;;-144.59;100.00;62238.38;5059465;28;2096;-72
2022/04/30 00:33:20;;;;;;;;;;;;;;;-144.59;100.00;62238.38;5059063;28;2197;-71
2022/04/30 00:35:46;;;;;;;;;;;;;;;-144.59;100.00;62238.38;5054880;28;1944;-71
2022/04/30 00:38:12;;;;;;;;;;;;;;;-144.59;100.00;62238.38;5054562;28;810;-72
2022/04/30 00:40:38;;;;;;;;;;;;;;;-144.59;100.00;62238.38;5054883;28;1201;-71
2022/04/30 00:43:05;;;;;;;;;;;;;;;-144.59;100.00;62238.38;5055025;28;1091;-71
2022/04/30 00:45:31;;;;;;;;;;;;;;;-144.59;100.00;62238.38;5061374;28;2201;-71
2022/04/30 00:47:58;;;;;;;;;;;;;;;-144.59;100.00;62238.38;5075248;28;798;-71
2022/04/30 00:50:28;;;;;;;;;;;;;;;-144.59;100.00;62238.38;5074571;28;1197;-72
2022/04/30 00:52:57;;;;;;;;;;;;;;;-144.59;100.00;62238.38;5075260;28;782;-71
2022/04/30 00:55:27;;;;;;;;;;;;;;;-144.59;100.00;62238.38;5074609;28;1985;-71
2022/04/30 00:57:58;;;;;;;;;;;;;;;-144.59;100.00;62238.38;5075299;28;838;-71
2022/04/30 01:00:26;;;;;;;;;;;;;;;-144.59;100.00;62238.38;5062974;28;2082;-72
2022/04/30 01:02:52;;;;;;;;;;;;;;;-144.59;100.00;62238.38;5055030;28;825;-71
2022/04/30 01:05:18;;;;;;;;;;;;;;;-144.59;100.00;62238.38;5054766;28;1970;-71
2022/04/30 01:07:44;;;;;;;;;;;;;;;-144.59;100.00;62238.38;5055098;28;826;-71
2022/04/30 01:10:10;;;;;;;;;;;;;;;-144.59;100.00;62238.38;5055100;28;2188;-71
2022/04/30 01:12:37;;;;;;;;;;;;;;;-144.59;100.00;62238.38;5054618;28;910;-71
2022/04/30 01:15:07;;;;;;;;;;;;;;;-144.59;100.00;62238.38;5054567;28;1965;-72
2022/04/30 01:17:35;;;;;;;;;;;;;;;-144.59;100.00;62238.38;5069403;28;2146;-72
2022/04/30 01:20:04;;;;;;;;;;;;;;;-144.59;100.00;62238.38;5074043;28;790;-71
2022/04/30 01:22:34;;;;;;;;;;;;;;;-144.59;100.00;62238.38;5074642;28;951;-72
2022/04/30 01:25:03;;;;;;;;;;;;;;;-144.59;100.00;62238.38;5069348;28;2127;-71
2022/04/30 01:27:29;;;;;;;;;;;;;;;-144.59;100.00;62238.38;5054219;28;814;-71
2022/04/30 01:29:58;;;;;;;;;;;;;;;-144.59;100.00;62238.38;5053947;28;804;-71
2022/04/30 01:38:06;;;;;;;;;;;;;;;-144.59;100.00;62238.38;5074446;28;916;-71
2022/04/30 01:40:32;;;;;;;;;;;;;;;-144.59;100.00;62238.38;5073352;28;2237;-72
2022/04/30 01:43:01;;;;;;;;;;;;;;;-144.59;100.00;62238.38;5074534;28;816;-71
2022/04/30 01:45:28;;;;;;;;;;;;;;;-144.59;100.00;62238.38;5074223;28;811;-71
2022/04/30 01:47:56;;;;;;;;;;;;;;;-144.59;100.00;62238.38;5068041;28;2189;-71
2022/04/30 01:50:23;;;;;;;;;;;;;;;-144.59;100.00;62238.38;5053708;28;1211;-71
2022/04/30 01:52:49;;;;;;;;;;;;;;;-144.59;100.00;62238.38;5054639;28;817;-71
2022/04/30 01:55:16;;;;;;;;;;;;;;;-144.59;100.00;62238.38;5054570;28;1965;-71
2022/04/30 01:57:43;;;;;;;;;;;;;;;-144.59;100.00;62238.38;5053965;28;915;-71
2022/04/30 02:00:14;;;;;;;;;;;;;;;-144.59;100.00;62238.38;5053526;28;1256;-71
2022/04/30 02:02:45;;;;;;;;;;;;;;;-144.59;100.00;62238.38;5063579;28;2149;-71
2022/04/30 02:05:13;;;;;;;;;;;;;;;-144.59;100.00;62238.38;5074968;28;827;-71
2022/04/30 02:07:51;;;;;;;;;;;;;;;-144.59;100.00;62238.38;5078231;28;882;-71
2022/04/30 02:10:18;;;;;;;;;;;;;;;-144.59;100.00;62238.38;5077581;28;1311;-71
2022/04/30 02:12:44;;;;;;;;;;;;;;;-144.59;100.00;62238.38;5077796;28;802;-72
2022/04/30 02:15:14;;;;;;;;;;;;;;;-144.59;100.00;62238.38;5077882;28;1967;-71
2022/04/30 02:17:41;;;;;;;;;;;;;;;-144.59;100.00;62238.38;5063038;28;2078;-71
2022/04/30 02:22:56;;;;;;;;;;;;;;;-144.59;100.00;62238.38;5057865;28;851;-71
2022/04/30 02:25:22;;;;;;;;;;;;;;;-144.59;100.00;62238.38;5057725;28;868;-71
2022/04/30 02:27:58;;;;;;;;;;;;;;;-144.59;100.00;62238.38;5057489;28;817;-71
2022/04/30 02:30:26;;;;;;;;;;;;;;;-144.59;100.00;62238.38;5058043;28;2210;-71
2022/04/30 02:33:03;;;;;;;;;;;;;;;-144.59;100.00;62238.38;5076486;28;2107;-71
2022/04/30 02:35:31;;;;;;;;;;;;;;;-144.59;100.00;62238.38;5057298;28;1902;-71
2022/04/30 02:38:00;;;;;;;;;;;;;;;-144.59;100.00;62238.38;5057081;28;820;-71
2022/04/30 02:40:28;;;;;;;;;;;;;;;-144.59;100.00;62238.38;5075309;28;2138;-71
2022/04/30 02:43:00;;;;;;;;;;;;;;;-144.59;100.00;62238.38;5077242;28;802;-71
2022/04/30 02:45:26;;;;;;;;;;;;;;;-144.59;100.00;62238.38;5077268;28;743;-71
2022/04/30 02:47:55;;;;;;;;;;;;;;;-144.59;100.00;62238.38;5075345;28;2122;-72
2022/04/30 02:50:24;;;;;;;;;;;;;;;-144.59;100.00;62238.38;5076212;28;2073;-71
2022/04/30 02:52:52;;;;;;;;;;;;;;;-144.59;100.00;62238.38;5076911;28;826;-71
2022/04/30 02:55:18;;;;;;;;;;;;;;;-144.59;100.00;62238.38;5077403;28;1902;-71
2022/04/30 03:00:39;;;;;;;;;;;;;;;-144.59;100.00;62238.38;5076721;28;1323;-71
2022/04/30 03:03:12;;;;;;;;;;;;;;;-144.59;100.00;62238.38;5061120;28;2296;-72
2022/04/30 03:05:41;;;;;;;;;;;;;;;-144.59;100.00;62238.38;5056990;28;830;-71
2022/04/30 03:08:12;;;;;;;;;;;;;;;-144.59;100.00;62238.38;5056719;28;802;-72
2022/04/30 03:10:42;;;;;;;;;;;;;;;-144.59;100.00;62238.38;5063813;28;2098;-72
2022/04/30 03:13:09;;;;;;;;;;;;;;;-144.59;100.00;62238.38;5057413;28;2250;-71
2022/04/30 03:15:37;;;;;;;;;;;;;;;-144.59;100.00;62238.38;5056670;28;1898;-71
2022/04/30 03:23:36;;;;;;;;;;;;;;;-144.59;100.00;62238.38;5056561;28;890;-71
2022/04/30 03:26:08;;;;;;;;;;;;;;;-144.59;100.00;62238.38;5057771;28;2181;-72
2022/04/30 03:28:36;;;;;;;;;;;;;;;-144.59;100.00;62238.38;5055972;28;764;-71
2022/04/30 03:31:07;;;;;;;;;;;;;;;-144.59;100.00;62238.38;5056378;28;1389;-71
2022/04/30 03:33:33;;;;;;;;;;;;;;;-144.59;100.00;62238.38;5061703;28;2137;-71
2022/04/30 03:36:00;;;;;;;;;;;;;;;-144.59;100.00;62238.38;5076175;28;1902;-72
2022/04/30 03:38:26;;;;;;;;;;;;;;;-144.59;100.00;62238.38;5075601;28;744;-71
2022/04/30 03:40:52;;;;;;;;;;;;;;;-144.59;100.00;62238.38;5064964;28;2120;-72
2022/04/30 03:43:18;;;;;;;;;;;;;;;-144.59;100.00;62238.38;5055936;28;814;-71
2022/04/30 03:45:44;;;;;;;;;;;;;;;-144.59;100.00;62238.38;5056147;28;975;-71
2022/04/30 03:48:12;;;;;;;;;;;;;;;-144.59;100.00;62238.38;5055430;28;798;-72
2022/04/30 03:50:39;;;;;;;;;;;;;;;-144.59;100.00;62238.38;5055665;28;1181;-72
2022/04/30 03:53:05;;;;;;;;;;;;;;;-144.59;100.00;62238.38;5055976;28;847;-71
2022/04/30 03:55:31;;;;;;;;;;;;;;;-144.59;100.00;62238.38;5068717;28;2098;-71
2022/04/30 03:57:57;;;;;;;;;;;;;;;-144.59;100.00;62238.38;5076312;28;821;-71
2022/04/30 04:00:23;;;;;;;;;;;;;;;-144.59;100.00;62238.38;5075602;28;1263;-71
2022/04/30 04:02:50;;;;;;;;;;;;;;;-144.59;100.00;62238.38;5074720;28;913;-72
2022/04/30 04:05:17;;;;;;;;;;;;;;;-144.59;100.00;62238.38;5075585;28;973;-71
2022/04/30 04:07:44;;;;;;;;;;;;;;;-144.59;100.00;62238.38;5075852;28;894;-71
2022/04/30 04:10:11;;;;;;;;;;;;;;;-144.59;100.00;62238.38;5059630;28;2155;-71
2022/04/30 04:12:37;;;;;;;;;;;;;;;-144.59;100.00;62238.38;5055886;28;825;-71
2022/04/30 04:17:49;;;;;;;;;;;;;;;-144.59;100.00;62238.38;5055377;28;874;-72
2022/04/30 04:20:19;;;;;;;;;;;;;;;-144.59;100.00;62238.38;5054966;28;1189;-71
2022/04/30 04:22:45;;;;;;;;;;;;;;;-144.59;100.00;62238.38;5056191;28;2092;-72
2022/04/30 04:27:58;;;;;;;;;;;;;;;-144.59;100.00;62238.38;5075194;28;861;-71
2022/04/30 04:30:29;;;;;;;;;;;;;;;-144.59;100.00;62238.38;5074860;28;1216;-72
2022/04/30 04:32:56;;;;;;;;;;;;;;;-144.59;100.00;62238.38;5074859;28;2054;-71
2022/04/30 04:35:23;;;;;;;;;;;;;;;-144.59;100.00;62238.38;5058763;28;2175;-72
2022/04/30 04:37:49;;;;;;;;;;;;;;;-144.59;100.00;62238.38;5075220;28;790;-72
2022/04/30 04:40:17;;;;;;;;;;;;;;;-144.59;100.00;62238.38;5074380;28;1181;-72
2022/04/30 04:42:44;;;;;;;;;;;;;;;-144.59;100.00;62238.38;5075034;28;763;-71
2022/04/30 04:45:10;;;;;;;;;;;;;;;-144.59;100.00;62238.38;5074810;28;794;-71
2022/04/30 04:47:40;;;;;;;;;;;;;;;-144.59;100.00;62238.38;5072575;28;2193;-72
2022/04/30 04:50:12;;;;;;;;;;;;;;;-144.59;100.00;62238.38;5054380;28;1171;-72
2022/04/30 04:52:42;;;;;;;;;;;;;;;-144.59;100.00;62238.38;5054941;28;893;-72
2022/04/30 04:55:09;;;;;;;;;;;;;;;-144.59;100.00;62238.38;5054571;28;2119;-72
2022/04/30 04:57:35;;;;;;;;;;;;;;;-144.59;100.00;62238.38;5055567;28;783;-71
2022/04/30 05:00:06;;;;;;;;;;;;;;;-144.59;100.00;62238.38;5054441;28;968;-72
2022/04/30 05:02:32;;;;;;;;;;;;;;;-144.59;100.00;62238.38;5061710;28;2110;-72
2022/04/30 05:04:58;;;;;;;;;;;;;;;-144.59;100.00;62238.38;5075118;28;810;-72
2022/04/30 05:07:25;;;;;;;;;;;;;;;-144.59;100.00;62238.38;5074726;28;847;-71
2022/04/30 05:09:52;;;;;;;;;;;;;;;-144.59;100.00;62238.38;5074209;28;986;-71
2022/04/30 05:12:18;;;;;;;;;;;;;;;-144.59;100.00;62238.38;5075057;28;1633;-72
2022/04/30 05:14:46;;;;;;;;;;;;;;;-144.59;100.00;62238.38;5074943;28;818;-71
2022/04/30 05:17:13;;;;;;;;;;;;;;;-144.59;100.00;62238.38;5064625;28;2149;-72
2022/04/30 05:19:39;;;;;;;;;;;;;;;-144.59;100.00;62238.38;5053963;28;2023;-72
2022/04/30 05:22:05;;;;;;;;;;;;;;;-144.59;100.00;62238.38;5054647;28;1256;-72
2022/04/30 05:24:32;;;;;;;;;;;;;;;-144.59;100.00;62238.38;5054551;28;964;-71
2022/04/30 05:26:58;;;;;;;;;;;;;;;-144.59;100.00;62238.38;5054481;28;815;-71
2022/04/30 05:29:24;;;;;;;;;;;;;;;-144.59;100.00;62238.38;5054144;28;753;-71
2022/04/30 05:31:50;;;;;;;;;;;;;;;-144.59;100.00;62238.38;5066545;28;2049;-72
2022/04/30 05:34:16;;;;;;;;;;;;;;;-144.59;100.00;62238.38;5064125;28;2257;-72
2022/04/30 05:36:42;;;;;;;;;;;;;;;-144.59;100.00;62238.38;5054378;28;1894;-71
2022/04/30 05:39:08;;;;;;;;;;;;;;;-144.59;100.00;62238.38;5053895;28;873;-71
2022/04/30 05:41:34;;;;;;;;;;;;;;;-144.59;100.00;62238.38;5057552;28;1197;-72
2022/04/30 05:44:00;;;;;;;;;;;;;;;-144.59;100.00;62238.38;5058285;28;821;-71
2022/04/30 05:46:26;;;;;;;;;;;;;;;-144.59;100.00;62238.38;5072238;28;2251;-72
2022/04/30 05:48:52;;;;;;;;;;;;;;;-144.59;100.00;62238.38;5077672;28;858;-72
2022/04/30 05:51:20;;;;;;;;;;;;;;;-144.59;100.00;62238.38;5078094;28;1177;-71
2022/04/30 05:53:45;;;;;;;;;;;;;;;-144.59;100.00;62238.38;5078090;28;853;-72
2022/04/30 05:56:11;;;;;;;;;;;;;;;-144.59;100.00;62238.38;5078678;28;1893;-72
2022/04/30 05:58:37;;;;;;;;;;;;;;;-144.59;100.00;62238.38;5077692;28;802;-72
2022/04/30 06:01:05;;;;;;;;;;;;;;;-144.59;100.00;62238.38;5061314;28;2130;-72
2022/04/30 06:03:33;;;;;;;;;;;;;;;-144.59;100.00;62238.38;5057804;28;791;-71
2022/04/30 06:05:59;;;;;;;;;;;;;;;-144.59;100.00;62238.38;5057897;28;838;-72
2022/04/30 06:08:25;;;;;;;;;;;;;;;-144.59;100.00;62238.38;5057403;28;826;-71
2022/04/30 06:10:51;;;;;;;;;;;;;;;-144.59;100.00;62238.38;5057783;28;1243;-71
2022/04/30 06:13:17;;;;;;;;;;;;;;;-144.59;100.00;62238.38;5058166;28;831;-72
2022/04/30 06:15:43;;;;;;;;;;;;;;;-144.59;100.00;62238.38;5076487;28;2046;-72
2022/04/30 06:18:09;;;;;;;;;;;;;;;-144.59;100.00;62238.38;5077941;28;864;-71
2022/04/30 06:20:35;;;;;;;;;;;;;;;-144.59;100.00;62238.38;5077509;28;1256;-72
2022/04/30 06:23:01;;;;;;;;;;;;;;;-144.59;100.00;62238.38;5077755;28;796;-72
2022/04/30 06:25:27;;;;;;;;;;;;;;;-144.59;100.00;62238.38;5077741;28;906;-72
2022/04/30 06:27:53;;;;;;;;;;;;;;;-144.59;100.00;62238.38;5076729;28;2141;-71
2022/04/30 06:30:19;;;;;;;;;;;;;;;-144.59;100.00;62238.38;5057082;28;1173;-72
2022/04/30 06:32:45;;;;;;;;;;;;;;;-144.59;100.00;62238.38;5057760;28;795;-72
2022/04/30 06:35:11;;;;;;;;;;;;;;;-144.59;100.00;62238.38;5073983;28;2176;-72
2022/04/30 06:37:37;;;;;;;;;;;;;;;-144.59;100.00;62238.38;5077149;28;1949;-72
2022/04/30 06:40:05;;;;;;;;;;;;;;;-144.59;100.00;62238.38;5076805;28;916;-72
2022/04/30 06:42:40;;;;;;;;;;;;;;;-144.59;100.00;62238.38;5077453;28;905;-72
2022/04/30 06:45:07;;;;;;;;;;;;;;;-144.59;100.00;62238.38;5075420;28;2142;-72
2022/04/30 06:47:34;;;;;;;;;;;;;;;-144.59;100.00;62238.38;5067668;28;2163;-72
2022/04/30 06:50:00;;;;;;;;;;;;;;;-144.59;100.00;62238.38;5057369;28;2130;-72
2022/04/30 06:52:26;;;;;;;;;;;;;;;-144.59;100.00;62238.38;5056990;28;2102;-72
2022/04/30 06:57:36;;;;;;;;;;;;;;;-144.59;100.00;62238.38;5056957;28;2253;-72
2022/04/30 07:02:48;;;;;;;;;;;;;;;-144.59;100.00;62238.38;5074928;28;2010;-72
2022/04/30 07:05:14;;;;;;;;;;;;;;;-144.59;100.00;62238.38;5075045;28;2725;-72
2022/04/30 07:07:40;;;;;;;;;;;;;;;-144.59;100.00;62238.38;5077475;28;975;-72
2022/04/30 07:10:07;;;;;;;;;;;;;;;-144.59;100.00;62238.38;5074345;28;2078;-72
2022/04/30 07:12:33;;;;;;;;;;;;;;;-144.59;100.00;62238.38;5074535;28;1910;-72
2022/04/30 07:14:59;;;;;;;;;;;;;;;-144.59;100.00;62238.38;5073850;28;2141;-72
2022/04/30 07:17:25;;;;;;;;;;;;;;;-144.59;100.00;62238.38;5076570;28;1956;-72
2022/04/30 07:19:51;;;;;;;;;;;;;;;-144.59;100.00;62238.38;5074629;28;2336;-72
2022/04/30 07:22:17;;;;;;;;;;;;;;;-144.59;100.00;62238.38;5076237;28;1212;-72
2022/04/30 07:24:43;;;;;;;;;;;;;;;-144.59;100.00;62238.38;5076876;28;881;-71
2022/04/30 07:27:09;;;;;;;;;;;;;;;-144.59;100.00;62238.38;5074710;28;2141;-72
2022/04/30 07:29:38;;;;;;;;;;;;;;;-144.59;100.00;62238.38;5063137;28;4966;-74
2022/04/30 07:32:07;;;;;;;;;;;;;;;-144.59;100.00;62238.38;5057201;28;4725;-73
2022/04/30 07:34:35;;;;;;;;;;;;;;;-144.59;100.00;62238.38;5065751;28;4956;-73
2022/04/30 07:37:00;;;;;;;;;;;;;;;-144.59;100.00;62238.38;5073799;28;2149;-73
2022/04/30 07:39:26;;;;;;;;;;;;;;;-144.59;100.00;62238.38;5071946;28;2286;-73
2022/04/30 07:41:54;;;;;;;;;;;;;;;-144.59;100.00;62238.38;5068804;28;2351;-73
2022/04/30 07:44:22;;;;;;;;;;;;;;;-144.59;100.00;62238.38;5055609;28;2263;-72
2022/04/30 07:46:48;;;;;;;;;;;;;;;-144.59;100.00;62238.38;5071519;28;2817;-73
2022/04/30 07:49:14;;;;;;;;;;;;;;;-144.59;100.00;62238.38;5075343;28;909;-73
2022/04/30 07:51:52;;;;;;;;;;;;;;;-144.59;100.00;62238.38;5063248;28;2335;-73
2022/04/30 07:54:20;;;;;;;;;;;;;;;-144.59;100.00;62238.38;5075208;28;2290;-73
2022/04/30 07:56:47;;;;;;;;;;;;;;;-144.59;100.00;62238.38;5075514;28;1947;-73
2022/04/30 07:59:13;;;;;;;;;;;;;;;-144.59;100.00;62238.38;5066701;28;2183;-73
2022/04/30 08:01:39;;;;;;;;;;;;;;;-144.59;100.00;62238.38;5058884;28;2255;-73
2022/04/30 08:04:05;;;;;;;;;;;;;;;-144.59;100.00;62238.38;5056792;28;2551;-73
2022/04/30 08:06:31;;;;;;;;;;;;;;;-144.59;100.00;62238.38;5066579;28;2134;-73
2022/04/30 08:08:57;;;;;;;;;;;;;;;-144.59;100.00;62238.38;5074910;28;792;-73
2022/04/30 08:11:23;;;;;;;;;;;;;;;-144.59;100.00;62238.38;5075340;28;1294;-73
2022/04/30 08:13:49;;;;;;;;;;;;;;;-144.59;100.00;62238.38;5075326;28;808;-73
2022/04/30 08:16:15;;;;;;;;;;;;;;;-144.59;100.00;62238.38;5075192;28;1955;-73
2022/04/30 08:18:41;;;;;;;;;;;;;;;-144.59;100.00;62238.38;5074214;28;828;-73
2022/04/30 08:21:08;;;;;;;;;;;;;;;-144.59;100.00;62238.38;5057411;28;2255;-73
2022/04/30 08:23:36;;;;;;;;;;;;;;;-144.59;100.00;62238.38;5069810;28;4178;-73
2022/04/30 08:26:03;;;;;;;;;;;;;;;-144.59;100.00;62238.38;5066219;28;2481;-73
2022/04/30 08:28:30;;;;;;;;;;;;;;;-144.59;100.00;62238.38;5054452;28;801;-73
2022/04/30 08:30:58;;;;;;;;;;;;;;;-144.59;100.00;62238.38;5069809;28;2394;-73
2022/04/30 08:33:25;;;;;;;;;;;;;;;-144.59;100.00;62238.38;5068100;28;1047;-73
2022/04/30 08:35:51;;;;;;;;;;;;;;;-144.59;100.00;62238.38;5056002;28;2510;-73
2022/04/30 08:38:17;;;;;;;;;;;;;;;-144.59;100.00;62238.38;5062906;28;2501;-73
2022/04/30 08:40:44;;;;;;;;;;;;;;;-144.59;100.00;62238.38;5074668;28;1220;-73
2022/04/30 08:43:12;;;;;;;;;;;;;;;-144.59;100.00;62238.38;5065671;28;2112;-74
2022/04/30 08:45:40;;;;;;;;;;;;;;;-144.59;100.00;62238.38;5055911;28;2210;-73
2022/04/30 08:48:08;;;;;;;;;;;;;;;-144.59;100.00;62238.38;5052913;28;2019;-73
2022/04/30 08:50:34;;;;;;;;;;;;;;;-144.59;100.00;62238.38;5053597;28;2079;-73
2022/04/30 08:53:00;;;;;;;;;;;;;;;-144.59;100.00;62238.38;5054823;28;1000;-73
2022/04/30 08:55:26;;;;;;;;;;;;;;;-144.59;100.00;62238.38;5054665;28;807;-73
2022/04/30 08:57:52;;;;;;;;;;;;;;;-144.59;100.00;62238.38;5055482;28;2099;-73
2022/04/30 09:00:19;;;;;;;;;;;;;;;-144.59;100.00;62238.38;5054126;28;2090;-73
2022/04/30 09:02:54;;;;;;;;;;;;;;;-144.59;100.00;62238.38;5054691;28;953;-73
2022/04/30 09:05:21;;;;;;;;;;;;;;;-144.59;100.00;62238.38;5054574;28;763;-72
2022/04/30 09:07:54;;;;;;;;;;;;;;;-144.59;100.00;62238.38;5054745;28;958;-72
2022/04/30 09:10:25;;;;;;;;;;;;;;;-144.59;100.00;62238.38;5054275;28;2151;-73
2022/04/30 09:12:52;;;;;;;;;;;;;;;-144.59;100.00;62238.38;5067273;28;2074;-72
2022/04/30 09:15:19;;;;;;;;;;;;;;;-144.59;100.00;62238.38;5074980;28;805;-72
2022/04/30 09:17:58;;;;;;;;;;;;;;;-144.59;100.00;62238.38;5074549;28;1943;-72
2022/04/30 09:20:25;;;;;;;;;;;;;;;-144.59;100.00;62238.38;5074051;28;1268;-72
2022/04/30 09:22:52;;;;;;;;;;;;;;;-144.59;100.00;62238.38;5074947;28;810;-73
2022/04/30 09:25:19;;;;;;;;;;;;;;;-144.59;100.00;62238.38;5074340;28;813;-73
2022/04/30 09:27:51;;;;;;;;;;;;;;;-144.59;100.00;62238.38;5073288;28;2185;-73
2022/04/30 09:30:22;;;;;;;;;;;;;;;-144.59;100.00;62238.38;5073950;28;1244;-73
2022/04/30 09:33:06;;;;;;;;;;;;;;;-144.59;100.00;62238.38;5059644;28;2118;-73
2022/04/30 09:38:25;;;;;;;;;;;;;;;-144.59;100.00;62238.38;5074191;28;1906;-73
2022/04/30 09:40:58;;;;;;;;;;;;;;;-144.59;100.00;62238.38;5074190;28;1256;-73
2022/04/30 09:43:32;;;;;;;;;;;;;;;-144.59;100.00;62238.38;5074130;28;756;-73
2022/04/30 09:46:08;;;;;;;;;;;;;;;-144.59;100.00;62238.38;5067852;28;2148;-73
2022/04/30 09:54:05;;;;;;;;;;;;;;;-144.59;100.00;62238.38;5058959;28;2291;-73
2022/04/30 09:56:37;;;;;;;;;;;;;;;-144.59;100.00;62238.38;5054336;28;1902;-72
2022/04/30 09:59:14;;;;;;;;;;;;;;;-144.59;100.00;62238.38;5054556;28;811;-73
2022/04/30 10:01:42;;;;;;;;;;;;;;;-144.59;100.00;62238.38;5054804;28;1261;-72
2022/04/30 10:04:10;;;;;;;;;;;;;;;-144.59;100.00;62238.38;5054977;28;2187;-72
2022/04/30 10:06:50;;;;;;;;;;;;;;;-144.59;100.00;62238.38;5061958;28;6279;-73
2022/04/30 10:09:19;;;;;;;;;;;;;;;-144.59;100.00;62238.38;5073484;28;953;-73
2022/04/30 10:12:16;;;;;;;;;;;;;;;-144.59;100.00;62238.38;5073409;28;5626;-74
2022/04/30 10:14:51;;;;;;;;;;;;;;;-144.59;100.00;62238.38;5070235;28;988;-73
2022/04/30 10:17:20;;;;;;;;;;;;;;;-144.59;100.00;62238.38;5071695;28;2137;-73
2022/04/30 10:20:01;;;;;;;;;;;;;;;-144.59;100.00;62238.38;5073247;28;844;-74
2022/04/30 10:22:27;;;;;;;;;;;;;;;-144.59;100.00;62238.38;5073844;28;1319;-73
2022/04/30 10:24:56;;;;;;;;;;;;;;;-144.59;100.00;62238.38;5066163;28;5234;-74
2022/04/30 10:27:22;;;;;;;;;;;;;;;-144.59;100.00;62238.38;5056587;28;826;-73
2022/04/30 10:29:59;;;;;;;;;;;;;;;-144.59;100.00;62238.38;5056759;28;907;-73
2022/04/30 10:32:37;;;;;;;;;;;;;;;-144.59;100.00;62238.38;5056886;28;2268;-73
2022/04/30 10:35:05;;;;;;;;;;;;;;;-144.59;100.00;62238.38;5057100;28;2260;-73
2022/04/30 10:37:34;;;;;;;;;;;;;;;-144.59;100.00;62238.38;5066385;28;2515;-73
2022/04/30 10:40:03;;;;;;;;;;;;;;;-144.59;100.00;62238.38;5059968;28;2752;-74
2022/04/30 10:42:31;;;;;;;;;;;;;;;-144.59;100.00;62238.38;5069564;28;2288;-73
2022/04/30 10:44:58;;;;;;;;;;;;;;;-144.59;100.00;62238.38;5057375;28;1212;-72
2022/04/30 10:47:25;;;;;;;;;;;;;;;-144.59;100.00;62238.38;5074933;28;2052;-72
2022/04/30 10:49:51;;;;;;;;;;;;;;;-144.59;100.00;62238.38;5075279;28;750;-72
2022/04/30 10:52:22;;;;;;;;;;;;;;;-144.59;100.00;62238.38;5076851;28;1268;-72
2022/04/30 10:54:51;;;;;;;;;;;;;;;-144.59;100.00;62238.38;5064035;28;2220;-73
2022/04/30 10:57:18;;;;;;;;;;;;;;;-144.59;100.00;62238.38;5063359;28;1898;-72
2022/04/30 10:59:55;;;;;;;;;;;;;;;-144.59;100.00;62238.38;5071992;28;1948;-72
2022/04/30 11:02:21;;;;;;;;;;;;;;;-144.59;100.00;62238.38;5074216;28;2341;-73
2022/04/30 11:04:47;;;;;;;;;;;;;;;-144.59;100.00;62238.38;5075588;28;2289;-72
2022/04/30 11:07:13;;;;;;;;;;;;;;;-144.59;100.00;62238.38;5076320;28;2257;-72
2022/04/30 11:09:43;;;;;;;;;;;;;;;-144.59;100.00;62238.38;5056036;28;2341;-72
2022/04/30 11:12:16;;;;;;;;;;;;;;;-144.59;100.00;62238.38;5056535;28;1203;-72
2022/04/30 11:14:45;;;;;;;;;;;;;;;-144.59;100.00;62238.38;5058011;28;2361;-72
2022/04/30 11:17:11;;;;;;;;;;;;;;;-144.59;100.00;62238.38;5056848;28;2282;-72
2022/04/30 11:19:41;;;;;;;;;;;;;;;-144.59;100.00;62238.38;5060125;28;2198;-73
2022/04/30 11:22:09;;;;;;;;;;;;;;;-144.59;100.00;62238.38;5069665;28;2552;-72
2022/04/30 11:24:39;;;;;;;;;;;;;;;-144.59;100.00;62238.38;5073190;28;963;-72
2022/04/30 11:27:08;;;;;;;;;;;;;;;-144.59;100.00;62238.38;5081234;28;2369;-72
2022/04/30 11:29:47;;;;;;;;;;;;;;;-144.59;100.00;62238.38;5061642;28;1259;-73
2022/04/30 11:32:29;;;;;;;;;;;;;;;-144.59;100.00;62238.38;5055956;28;1269;-72
2022/04/30 11:35:00;;;;;;;;;;;;;;;-144.59;100.00;62238.38;5056431;28;958;-72
2022/04/30 11:37:35;;;;;;;;;;;;;;;-144.59;100.00;62238.38;5055612;28;2106;-73
2022/04/30 11:40:05;;;;;;;;;;;;;;;-144.59;100.00;62238.38;5056486;28;870;-73
2022/04/30 11:42:31;;;;;;;;;;;;;;;-144.59;100.00;62238.38;5055876;28;2030;-74
2022/04/30 11:44:57;;;;;;;;;;;;;;;-144.59;100.00;62238.38;5066882;28;1992;-73
2022/04/30 11:47:24;;;;;;;;;;;;;;;-144.59;100.00;62238.38;5068438;28;2609;-73
2022/04/30 11:50:05;;;;;;;;;;;;;;;-144.59;100.00;62238.38;5055619;28;814;-73
2022/04/30 11:52:31;;;;;;;;;;;;;;;-144.59;100.00;62238.38;5057078;28;2079;-73
2022/04/30 11:55:00;;;;;;;;;;;;;;;-144.59;100.00;62238.38;5057062;28;2185;-73
2022/04/30 11:57:26;;;;;;;;;;;;;;;-144.59;100.00;62238.38;5055801;28;1963;-73
2022/04/30 11:59:55;;;;;;;;;;;;;;;-144.59;100.00;62238.38;5058608;28;1938;-73
2022/04/30 12:02:21;;;;;;;;;;;;;;;-144.59;100.00;62238.38;5075553;28;1205;-72
2022/04/30 12:04:48;;;;;;;;;;;;;;;-144.59;100.00;62238.38;5074814;28;2561;-72
2022/04/30 12:07:14;;;;;;;;;;;;;;;-144.59;100.00;62238.38;5075194;28;2157;-73
2022/04/30 12:09:50;;;;;;;;;;;;;;;-144.59;100.00;62238.38;5073494;28;2192;-72
2022/04/30 12:12:18;;;;;;;;;;;;;;;-144.59;100.00;62238.38;5075409;28;1169;-72
2022/04/30 12:14:48;;;;;;;;;;;;;;;-144.59;100.00;62238.38;5075380;28;751;-73
2022/04/30 12:17:16;;;;;;;;;;;;;;;-144.59;100.00;62238.38;5070661;28;6394;-75
2022/04/30 12:25:33;;;;;;;;;;;;;;;-144.59;100.00;62238.38;5030815;28;2138;-72
2022/04/30 12:28:02;;;;;;;;;;;;;;;-144.59;100.00;62238.38;5073158;28;2212;-72
2022/04/30 12:30:28;;;;;;;;;;;;;;;-144.59;100.00;62238.38;5074516;28;1296;-72
2022/04/30 12:33:04;;;;;;;;;;;;;;;-144.59;100.00;62238.38;5074951;28;820;-72
2022/04/30 12:35:32;;;;;;;;;;;;;;;-144.59;100.00;62238.38;5074717;28;5095;-72
2022/04/30 12:38:12;;;;;;;;;;;;;;;-144.59;100.00;62238.38;5056085;28;1902;-72
2022/04/30 12:40:40;;;;;;;;;;;;;;;-144.59;100.00;62238.38;5054891;28;1351;-72
2022/04/30 12:43:06;;;;;;;;;;;;;;;-144.59;100.00;62238.38;5057572;28;2261;-72
2022/04/30 12:45:33;;;;;;;;;;;;;;;-144.59;100.00;62238.38;5062846;28;2242;-72
2022/04/30 12:48:00;;;;;;;;;;;;;;;-144.59;100.00;62238.38;5056895;28;968;-72
2022/04/30 12:50:28;;;;;;;;;;;;;;;-144.59;100.00;62238.38;5055234;28;2591;-72
2022/04/30 12:52:54;;;;;;;;;;;;;;;-144.59;100.00;62238.38;5073874;28;2367;-72
2022/04/30 12:55:20;;;;;;;;;;;;;;;-144.59;100.00;62238.38;5073208;28;856;-72
2022/04/30 12:57:47;;;;;;;;;;;;;;;-144.59;100.00;62238.38;5072393;28;2226;-73
2022/04/30 13:00:15;;;;;;;;;;;;;;;-144.59;100.00;62238.38;5060922;28;2410;-72
2022/04/30 13:02:43;;;;;;;;;;;;;;;-144.59;100.00;62238.38;5058632;28;2433;-73
2022/04/30 13:05:10;;;;;;;;;;;;;;;-144.59;100.00;62238.38;5074244;28;2460;-72
2022/04/30 13:07:37;;;;;;;;;;;;;;;-144.59;100.00;62238.38;5056364;28;2132;-73
2022/04/30 13:15:37;;;;;;;;;;;;;;;-144.59;100.00;62238.38;5074427;28;753;-72
2022/04/30 13:18:04;;;;;;;;;;;;;;;-144.59;100.00;62238.38;5074273;28;1902;-73
2022/04/30 13:20:30;;;;;;;;;;;;;;;-144.59;100.00;62238.38;5069761;28;2210;-73
2022/04/30 13:22:56;;;;;;;;;;;;;;;-144.59;100.00;62238.38;5054308;28;795;-72